Time;durP1;ratioP1;P1;durP2;ratioP2;P2;SDS_P1;SDS_P2;PMS_P1;PMS_P2;Temp;Humidity;BMP_temperature;BMP_pressure;BME280_temperature;BME280_humidity;BME280_pressure;Samples;Min_cycle;Max_cycle;Signal;HPM_P1;HPM_P2
2022/03/16 00:00:10;;;;;;;9.57;6.82;;;;;;;12.42;43.36;102084.59;5049828;28;20128;-84
2022/03/16 00:02:42;;;;;;;9.18;6.30;;;;;;;12.36;43.06;102086.75;5050704;28;20439;-84
2022/03/16 00:05:09;;;;;;;7.95;5.90;;;;;;;12.33;43.23;102087.84;5036918;28;20048;-83
2022/03/16 00:07:36;;;;;;;7.88;6.10;;;;;;;12.32;43.35;102093.34;5040353;28;20602;-83
2022/03/16 00:10:07;;;;;;;10.40;6.60;;;;;;;12.33;43.67;102090.56;5040494;28;20045;-84
2022/03/16 00:12:39;;;;;;;9.02;6.55;;;;;;;12.30;43.82;102084.38;5048437;28;20049;-84
2022/03/16 00:15:07;;;;;;;9.02;6.32;;;;;;;12.25;43.13;102081.91;5032402;28;20048;-84
2022/03/16 00:17:34;;;;;;;9.82;6.97;;;;;;;12.24;43.47;102080.16;5040849;28;20069;-84
2022/03/16 00:20:01;;;;;;;9.85;6.25;;;;;;;12.22;43.21;102073.03;5036060;28;20041;-84
2022/03/16 00:22:28;;;;;;;10.50;6.93;;;;;;;12.19;43.21;102077.66;5035190;28;20128;-84
2022/03/16 00:24:54;;;;;;;9.18;6.65;;;;;;;12.18;43.26;102072.31;5049341;28;20052;-84
2022/03/16 00:27:22;;;;;;;8.38;6.07;;;;;;;12.16;43.50;102083.31;5033746;28;20128;-84
2022/03/16 00:29:49;;;;;;;8.18;6.05;;;;;;;12.16;43.78;102079.69;5037606;28;20045;-84
2022/03/16 00:32:16;;;;;;;9.15;6.70;;;;;;;12.15;43.63;102080.66;5037207;28;20053;-83
2022/03/16 00:34:43;;;;;;;10.93;6.78;;;;;;;12.14;43.58;102079.78;5035591;28;20056;-83
2022/03/16 00:37:10;;;;;;;8.82;6.25;;;;;;;12.14;43.35;102087.94;5049792;28;20499;-84
2022/03/16 00:39:37;;;;;;;10.80;6.65;;;;;;;12.13;43.72;102090.75;5042680;28;20492;-84
2022/03/16 00:42:04;;;;;;;8.68;6.10;;;;;;;12.12;43.52;102086.25;5051242;28;20072;-84
2022/03/16 00:44:35;;;;;;;7.93;5.78;;;;;;;12.10;43.64;102091.81;5034447;28;20044;-84
2022/03/16 00:47:05;;;;;;;8.23;6.38;;;;;;;12.11;43.86;102093.53;5027326;28;20068;-83
2022/03/16 00:49:33;;;;;;;9.68;6.82;;;;;;;12.08;43.73;102090.13;5031798;28;20071;-84
2022/03/16 00:52:00;;;;;;;8.00;6.30;;;;;;;12.07;43.47;102088.34;5028832;28;20053;-84
2022/03/16 00:54:30;;;;;;;8.52;6.28;;;;;;;12.07;43.73;102086.50;5042595;28;20057;-84
2022/03/16 00:56:58;;;;;;;10.75;7.15;;;;;;;12.03;43.70;102089.47;5032671;28;20048;-84
2022/03/16 00:59:25;;;;;;;10.38;6.68;;;;;;;12.00;43.57;102086.91;5030099;28;20107;-84
2022/03/16 01:01:52;;;;;;;8.45;6.32;;;;;;;11.97;43.47;102079.78;5046056;28;20769;-84
2022/03/16 01:04:19;;;;;;;9.25;6.53;;;;;;;11.96;43.54;102090.75;5034961;28;20053;-84
2022/03/16 01:06:46;;;;;;;9.45;6.35;;;;;;;11.93;43.38;102083.66;5033555;28;20077;-84
2022/03/16 01:09:13;;;;;;;9.70;6.63;;;;;;;11.93;43.47;102082.78;5034973;28;20124;-84
2022/03/16 01:11:40;;;;;;;10.52;7.25;;;;;;;11.92;43.74;102076.44;5038810;28;20466;-83
2022/03/16 01:14:07;;;;;;;9.73;6.80;;;;;;;11.90;43.38;102072.91;5050684;28;20068;-84
2022/03/16 01:16:35;;;;;;;10.07;7.05;;;;;;;11.88;43.66;102091.16;5049980;28;20051;-84
2022/03/16 01:19:02;;;;;;;8.85;6.03;;;;;;;11.84;43.59;102075.97;5032536;28;20572;-83
2022/03/16 01:21:30;;;;;;;10.15;6.43;;;;;;;11.82;43.41;102078.75;5047170;28;20052;-84
2022/03/16 01:23:56;;;;;;;8.70;6.53;;;;;;;11.80;43.60;102085.25;5030265;28;20064;-84
2022/03/16 01:26:24;;;;;;;9.05;6.70;;;;;;;11.78;43.94;102081.72;5050685;28;20547;-83
2022/03/16 01:28:50;;;;;;;9.93;6.60;;;;;;;11.77;43.66;102080.84;5031783;28;20049;-84
2022/03/16 01:31:21;;;;;;;8.50;5.93;;;;;;;11.78;44.05;102066.25;5031012;28;20047;-84
2022/03/16 01:33:48;;;;;;;8.05;5.95;;;;;;;11.75;43.68;102073.72;5027653;28;20045;-84
2022/03/16 01:36:15;;;;;;;8.80;6.22;;;;;;;11.73;43.94;102067.44;5034833;28;20475;-84
2022/03/16 01:38:42;;;;;;;10.65;6.80;;;;;;;11.72;43.87;102072.00;5044730;28;20042;-84
2022/03/16 01:41:09;;;;;;;9.10;6.88;;;;;;;11.70;43.67;102073.91;5047680;28;20123;-84
2022/03/16 01:43:35;;;;;;;8.38;6.18;;;;;;;11.68;43.88;102073.13;5049721;28;20044;-84
2022/03/16 01:46:02;;;;;;;10.15;6.70;;;;;;;11.69;43.93;102074.03;5049581;28;20049;-84
2022/03/16 01:48:30;;;;;;;9.95;6.05;;;;;;;11.68;43.96;102075.88;5031781;28;20455;-83
2022/03/16 01:50:56;;;;;;;9.77;6.53;;;;;;;11.68;44.23;102070.41;5044154;28;20122;-83
2022/03/16 01:53:27;;;;;;;9.77;5.88;;;;;;;11.68;44.06;102064.97;5031726;28;20045;-83
2022/03/16 01:55:54;;;;;;;9.43;6.20;;;;;;;11.68;43.98;102062.25;5035184;28;20053;-83
2022/03/16 01:58:21;;;;;;;9.63;6.53;;;;;;;11.70;43.85;102064.88;5032493;28;20044;-83
2022/03/16 02:00:51;;;;;;;10.18;6.13;;;;;;;11.69;43.77;102066.75;5049265;28;20445;-83
2022/03/16 02:03:18;;;;;;;8.02;6.35;;;;;;;11.71;44.27;102061.19;5047975;28;20536;-83
2022/03/16 02:05:45;;;;;;;8.18;5.80;;;;;;;11.72;44.11;102063.84;5034712;28;20045;-83
2022/03/16 02:08:12;;;;;;;7.53;5.78;;;;;;;11.73;43.83;102056.56;5039381;28;20049;-83
2022/03/16 02:10:40;;;;;;;8.90;5.55;;;;;;;11.73;44.02;102049.28;5028813;28;20068;-83
2022/03/16 02:13:11;;;;;;;8.77;5.97;;;;;;;11.75;44.12;102049.25;5046735;28;20511;-83
2022/03/16 02:15:39;;;;;;;7.72;5.38;;;;;;;11.73;43.86;102046.56;5044937;28;20045;-83
2022/03/16 02:18:06;;;;;;;8.38;5.55;;;;;;;11.72;43.88;102038.47;5034299;28;20353;-83
2022/03/16 02:20:33;;;;;;;8.55;5.65;;;;;;;11.73;44.08;102048.41;5038402;28;20433;-84
2022/03/16 02:23:07;;;;;;;9.20;5.55;;;;;;;11.74;43.99;102042.91;5033088;28;20056;-84
2022/03/16 02:25:48;;;;;;;8.43;6.07;;;;;;;11.76;44.59;102048.28;5005573;28;20049;-83
2022/03/16 02:28:15;;;;;;;8.07;5.78;;;;;;;11.72;43.93;102041.19;5045637;28;20114;-85
2022/03/16 02:30:42;;;;;;;8.57;6.43;;;;;;;11.72;43.90;102042.06;5039047;28;20056;-84
2022/03/16 02:33:10;;;;;;;7.75;5.60;;;;;;;11.72;43.91;102043.91;5049012;28;20052;-84
2022/03/16 02:35:37;;;;;;;8.00;5.13;;;;;;;11.72;43.76;102049.34;5026098;28;20110;-84
2022/03/16 02:38:04;;;;;;;9.00;6.05;;;;;;;11.72;43.85;102044.78;5032115;28;20044;-84
2022/03/16 02:40:31;;;;;;;9.15;5.88;;;;;;;11.72;43.95;102041.19;5037549;28;20037;-84
2022/03/16 02:42:59;;;;;;;8.90;6.22;;;;;;;11.72;43.65;102038.47;5051906;28;20147;-85
2022/03/16 02:45:26;;;;;;;8.45;6.10;;;;;;;11.71;43.60;102044.88;5029836;28;20049;-84
2022/03/16 02:47:53;;;;;;;8.35;5.22;;;;;;;11.70;43.50;102043.09;5049645;28;20049;-84
2022/03/16 02:50:20;;;;;;;8.25;5.55;;;;;;;11.66;43.64;102041.53;5048729;28;20076;-83
2022/03/16 02:52:47;;;;;;;7.70;5.15;;;;;;;11.65;43.33;102048.81;5037833;28;20063;-85
2022/03/16 02:55:34;;;;;;;8.35;5.43;;;;;;;11.60;43.61;102044.56;5028339;28;20053;-84
2022/03/16 02:58:01;;;;;;;7.65;5.38;;;;;;;11.58;43.48;102039.22;5037120;28;20534;-84
2022/03/16 03:00:28;;;;;;;8.65;5.72;;;;;;;11.57;43.57;102042.00;5027581;28;20069;-84
2022/03/16 03:02:55;;;;;;;8.20;5.53;;;;;;;11.56;43.51;102045.69;5044953;28;20048;-83
2022/03/16 03:05:23;;;;;;;9.75;6.15;;;;;;;11.54;43.87;102036.72;5028901;28;20388;-84
2022/03/16 03:07:50;;;;;;;8.60;5.63;;;;;;;11.51;43.86;102035.06;5044495;28;20057;-84
2022/03/16 03:10:17;;;;;;;9.30;6.18;;;;;;;11.50;43.54;102027.84;5030765;28;20047;-84
2022/03/16 03:12:44;;;;;;;8.73;5.75;;;;;;;11.48;43.89;102035.19;5041646;28;20064;-84
2022/03/16 03:15:13;;;;;;;7.95;5.80;;;;;;;11.48;43.79;102031.59;5033063;28;20502;-84
2022/03/16 03:17:42;;;;;;;8.80;5.78;;;;;;;11.47;43.76;102029.84;5028173;28;20084;-84
2022/03/16 03:20:10;;;;;;;7.88;5.75;;;;;;;11.44;43.76;102029.06;5047701;28;20056;-84
2022/03/16 03:22:37;;;;;;;9.02;6.25;;;;;;;11.42;43.62;102033.69;5051262;28;20492;-84
2022/03/16 03:25:05;;;;;;;9.75;6.38;;;;;;;11.42;43.61;102030.09;5046059;28;20317;-84
2022/03/16 03:27:32;;;;;;;8.15;6.07;;;;;;;11.38;43.50;102023.91;5032826;28;20089;-84
2022/03/16 03:29:59;;;;;;;8.95;5.72;;;;;;;11.37;43.68;102027.59;5025093;28;20053;-84
2022/03/16 03:32:27;;;;;;;8.15;5.57;;;;;;;11.35;43.66;102028.66;5052548;28;20365;-84
2022/03/16 03:34:55;;;;;;;8.07;5.40;;;;;;;11.33;43.85;102026.00;5040118;28;20056;-84
2022/03/16 03:37:25;;;;;;;8.02;5.93;;;;;;;11.33;43.95;102023.28;5058021;28;20056;-84
2022/03/16 03:39:52;;;;;;;8.32;5.53;;;;;;;11.32;43.69;102031.50;5035254;28;20126;-84
2022/03/16 03:42:19;;;;;;;7.57;5.68;;;;;;;11.29;43.57;102027.09;5051932;28;20045;-84
2022/03/16 03:44:47;;;;;;;9.50;5.13;;;;;;;11.29;43.64;102032.53;5044274;28;20051;-85
2022/03/16 03:47:14;;;;;;;8.13;5.40;;;;;;;11.28;43.73;102035.38;5036255;28;20056;-84
2022/03/16 03:49:42;;;;;;;7.88;5.45;;;;;;;11.29;43.88;102039.81;5026257;28;20412;-84
2022/03/16 03:52:10;;;;;;;9.35;5.25;;;;;;;11.29;43.94;102046.13;5035501;28;20041;-84
2022/03/16 03:54:37;;;;;;;8.07;5.30;;;;;;;11.29;44.07;102045.25;5034434;28;20040;-84
2022/03/16 03:57:04;;;;;;;7.05;4.90;;;;;;;11.29;43.88;102048.84;5045756;28;20057;-85
2022/03/16 03:59:31;;;;;;;7.88;5.28;;;;;;;11.30;43.93;102042.47;5038069;28;20049;-84
2022/03/16 04:01:58;;;;;;;8.27;5.30;;;;;;;11.31;43.64;102051.50;5030646;28;20055;-84
2022/03/16 04:04:26;;;;;;;8.52;5.38;;;;;;;11.32;43.77;102045.09;5052115;28;20049;-84
2022/03/16 04:06:53;;;;;;;7.40;5.28;;;;;;;11.31;43.84;102044.22;5034119;28;20040;-84
2022/03/16 04:09:20;;;;;;;8.15;5.70;;;;;;;11.33;44.00;102049.59;5033291;28;20071;-84
2022/03/16 04:11:47;;;;;;;7.80;5.18;;;;;;;11.33;43.99;102044.16;5044907;28;20446;-85
2022/03/16 04:14:16;;;;;;;8.90;5.63;;;;;;;11.33;43.98;102055.91;5035392;28;20503;-84
2022/03/16 04:16:42;;;;;;;9.25;5.60;;;;;;;11.33;43.91;102061.34;5034694;28;20052;-84
2022/03/16 04:19:10;;;;;;;9.35;6.15;;;;;;;11.33;43.95;102061.34;5038819;28;20239;-84
2022/03/16 04:21:37;;;;;;;9.98;6.03;;;;;;;11.35;43.88;102058.56;5041628;28;20041;-84
2022/03/16 04:24:04;;;;;;;7.90;5.20;;;;;;;11.34;43.62;102060.41;5049486;28;20390;-84
2022/03/16 04:26:31;;;;;;;9.05;6.03;;;;;;;11.35;43.70;102066.72;5043291;28;20053;-84
2022/03/16 04:28:58;;;;;;;8.05;5.93;;;;;;;11.32;43.91;102061.41;5034715;28;20052;-84
2022/03/16 04:31:25;;;;;;;8.77;5.97;;;;;;;11.29;43.57;102062.44;5040303;28;20053;-84
2022/03/16 04:33:52;;;;;;;10.40;5.97;;;;;;;11.25;43.87;102063.56;5035041;28;20053;-85
2022/03/16 04:36:19;;;;;;;8.30;5.85;;;;;;;11.24;43.54;102066.38;5035391;28;20052;-84
2022/03/16 04:38:47;;;;;;;8.25;5.75;;;;;;;11.19;43.64;102063.88;5040457;28;20045;-84
2022/03/16 04:41:14;;;;;;;8.32;5.53;;;;;;;11.18;43.69;102059.41;5038231;28;20059;-84
2022/03/16 04:43:41;;;;;;;9.45;5.90;;;;;;;11.14;43.97;102056.91;5051555;28;20045;-84
2022/03/16 04:46:08;;;;;;;9.88;6.20;;;;;;;11.11;43.71;102062.50;5053295;28;20095;-83
2022/03/16 04:48:35;;;;;;;8.98;5.97;;;;;;;11.06;43.46;102060.00;5026210;28;20456;-83
2022/03/16 04:51:02;;;;;;;10.27;6.05;;;;;;;11.02;43.88;102067.44;5035516;28;20045;-83
2022/03/16 04:53:29;;;;;;;8.40;5.50;;;;;;;11.00;43.84;102061.19;5049233;28;20049;-84
2022/03/16 04:55:56;;;;;;;8.27;6.05;;;;;;;10.97;44.19;102060.47;5043988;28;20072;-85
2022/03/16 04:58:23;;;;;;;9.35;5.70;;;;;;;10.93;44.07;102059.75;5051808;28;20048;-84
2022/03/16 05:00:51;;;;;;;7.95;5.47;;;;;;;10.90;43.76;102061.72;5037806;28;20053;-84
2022/03/16 05:03:18;;;;;;;8.55;5.57;;;;;;;10.89;43.98;102060.84;5051869;28;20055;-84
2022/03/16 05:05:47;;;;;;;8.73;6.03;;;;;;;10.87;43.95;102061.88;5048518;28;20075;-84
2022/03/16 05:08:13;;;;;;;8.35;5.43;;;;;;;10.85;43.87;102058.34;5051057;28;20132;-84
2022/03/16 05:10:40;;;;;;;9.05;5.93;;;;;;;10.84;43.72;102062.03;5033496;28;20053;-84
2022/03/16 05:13:07;;;;;;;9.15;6.43;;;;;;;10.83;43.77;102061.16;5040225;28;20053;-84
2022/03/16 05:15:34;;;;;;;8.60;5.78;;;;;;;10.82;43.81;102061.22;5035133;28;20135;-85
2022/03/16 05:18:01;;;;;;;9.18;6.03;;;;;;;10.78;44.16;102063.22;5035680;28;20141;-84
2022/03/16 05:20:28;;;;;;;10.05;6.32;;;;;;;10.76;44.02;102061.53;5050043;28;20049;-84
2022/03/16 05:22:55;;;;;;;10.23;6.32;;;;;;;10.73;44.10;102058.94;5051468;28;20072;-84
2022/03/16 05:25:26;;;;;;;9.68;6.38;;;;;;;10.73;44.34;102065.25;5024713;28;20083;-84
2022/03/16 05:27:54;;;;;;;9.38;6.25;;;;;;;10.66;44.16;102067.38;5048644;28;20332;-84
2022/03/16 05:30:23;;;;;;;8.73;6.15;;;;;;;10.64;44.08;102061.16;5047126;28;20083;-84
2022/03/16 05:32:52;;;;;;;8.45;6.05;;;;;;;10.62;44.19;102054.91;5035990;28;20045;-84
2022/03/16 05:35:19;;;;;;;9.15;6.40;;;;;;;10.58;44.40;102066.88;5051414;28;20056;-84
2022/03/16 05:37:46;;;;;;;9.93;6.55;;;;;;;10.58;44.24;102071.44;5053152;28;20463;-84
2022/03/16 05:40:13;;;;;;;9.32;5.90;;;;;;;10.57;44.52;102069.66;5033004;28;20065;-83
2022/03/16 05:42:40;;;;;;;8.85;6.03;;;;;;;10.57;44.59;102075.97;5045321;28;20045;-84
2022/03/16 05:45:08;;;;;;;8.73;6.07;;;;;;;10.58;44.68;102077.75;5051489;28;20048;-84
2022/03/16 05:47:35;;;;;;;10.63;6.55;;;;;;;10.57;44.21;102083.25;5045502;28;20053;-84
2022/03/16 05:50:04;;;;;;;10.80;6.97;;;;;;;10.58;44.23;102076.84;4997418;28;20048;-84
2022/03/16 05:52:34;;;;;;;9.23;6.28;;;;;;;10.55;44.45;102074.28;5036056;28;20052;-84
2022/03/16 05:55:02;;;;;;;9.75;6.25;;;;;;;10.54;44.47;102081.53;5039215;28;20072;-83
2022/03/16 05:57:30;;;;;;;10.35;6.45;;;;;;;10.53;44.54;102078.91;5048543;28;20060;-83
2022/03/16 05:59:57;;;;;;;9.52;6.03;;;;;;;10.50;44.38;102079.94;5044976;28;20037;-84
2022/03/16 06:02:24;;;;;;;8.82;6.28;;;;;;;10.49;44.24;102080.88;5035052;28;20048;-85
2022/03/16 06:04:51;;;;;;;9.57;6.53;;;;;;;10.47;44.40;102082.78;5050366;28;20441;-85
2022/03/16 06:07:18;;;;;;;8.80;5.53;;;;;;;10.46;44.54;102083.72;5037434;28;20412;-84
2022/03/16 06:09:45;;;;;;;10.35;5.95;;;;;;;10.46;44.73;102089.16;5035331;28;20045;-85
2022/03/16 06:12:12;;;;;;;9.75;6.47;;;;;;;10.47;44.61;102090.94;5038058;28;20065;-86
2022/03/16 06:14:41;;;;;;;10.73;6.32;;;;;;;10.47;44.79;102079.19;5034175;28;20408;-86
2022/03/16 06:17:08;;;;;;;9.73;6.07;;;;;;;10.48;44.67;102079.13;5040804;28;20041;-85
2022/03/16 06:19:35;;;;;;;8.32;6.15;;;;;;;10.50;44.73;102079.06;5045833;28;20576;-85
2022/03/16 06:22:02;;;;;;;9.45;5.95;;;;;;;10.51;45.02;102076.28;5053102;28;20071;-86
2022/03/16 06:24:30;;;;;;;8.93;6.03;;;;;;;10.52;44.87;102071.72;5041959;28;20045;-85
2022/03/16 06:26:57;;;;;;;10.77;6.68;;;;;;;10.54;44.84;102075.25;5033330;28;20045;-85
2022/03/16 06:29:24;;;;;;;9.25;5.93;;;;;;;10.55;44.95;102071.56;5003975;28;20048;-85
2022/03/16 06:31:51;;;;;;;9.48;6.07;;;;;;;10.57;45.01;102077.81;5026906;28;20063;-86
2022/03/16 06:34:21;;;;;;;8.45;6.00;;;;;;;10.59;45.00;102074.06;5051439;28;20500;-84
2022/03/16 06:36:47;;;;;;;9.18;5.88;;;;;;;10.62;44.88;102076.63;5038370;28;20037;-83
2022/03/16 06:39:14;;;;;;;11.00;6.13;;;;;;;10.65;45.30;102083.75;5045544;28;20127;-84
2022/03/16 06:41:43;;;;;;;9.60;5.70;;;;;;;10.68;45.50;102079.06;5050475;28;20080;-86
2022/03/16 06:44:10;;;;;;;8.07;5.57;;;;;;;10.75;45.66;102076.06;5034928;28;20132;-87
2022/03/16 06:46:37;;;;;;;8.57;5.68;;;;;;;10.80;45.64;102079.41;5036617;28;20057;-86
2022/03/16 06:49:05;;;;;;;9.00;5.68;;;;;;;10.87;46.28;102079.03;5036030;28;20044;-87
2022/03/16 06:51:32;;;;;;;9.35;5.78;;;;;;;10.96;46.89;102084.03;5060765;28;20048;-89
2022/03/16 06:53:59;;;;;;;8.70;5.72;;;;;;;11.09;47.26;102092.47;5023696;28;20041;-88
2022/03/16 06:56:26;;;;;;;10.10;5.63;;;;;;;11.24;47.64;102096.28;5039842;28;20061;-88
2022/03/16 06:58:53;;;;;;;10.30;6.15;;;;;;;11.40;47.95;102086.38;5022772;28;20095;-88
2022/03/16 07:01:20;;;;;;;8.52;5.78;;;;;;;11.59;47.97;102095.38;5036895;28;20455;-88
2022/03/16 07:03:47;;;;;;;10.13;6.20;;;;;;;11.79;48.07;102094.34;5050943;28;20051;-88
2022/03/16 07:06:14;;;;;;;8.80;5.95;;;;;;;12.00;47.98;102087.81;5033684;28;20068;-88
2022/03/16 07:08:41;;;;;;;8.80;5.75;;;;;;;12.24;48.20;102092.88;5011124;28;20046;-88
2022/03/16 07:11:08;;;;;;;10.57;6.60;;;;;;;12.46;48.08;102094.34;5020958;28;20136;-88
2022/03/16 07:13:34;;;;;;;10.35;6.03;;;;;;;12.71;47.62;102093.00;5035114;28;20048;-88
2022/03/16 07:16:01;;;;;;;8.95;6.32;;;;;;;12.91;47.28;102084.59;5049712;28;20482;-89
2022/03/16 07:18:29;;;;;;;9.13;5.97;;;;;;;13.12;46.52;102079.72;5035521;28;20040;-90
2022/03/16 07:20:56;;;;;;;9.23;6.50;;;;;;;13.28;46.11;102083.34;4986887;28;20064;-89
2022/03/16 07:23:24;;;;;;;9.50;6.65;;;;;;;13.44;46.26;102078.75;4966505;28;20051;-89
2022/03/16 07:25:55;;;;;;;9.43;6.00;;;;;;;13.60;46.19;102079.59;4977244;28;20451;-88
2022/03/16 07:28:22;;;;;;;10.48;6.55;;;;;;;13.76;46.08;102076.81;4964024;28;20055;-87
2022/03/16 07:30:49;;;;;;;9.15;6.10;;;;;;;13.92;45.61;102072.16;4960919;28;20125;-89
2022/03/16 07:33:17;;;;;;;8.98;5.90;;;;;;;14.08;45.08;102077.59;4940380;28;20046;-89
2022/03/16 07:35:45;;;;;;;8.75;6.10;;;;;;;14.20;44.61;102071.34;4976077;28;20101;-88
2022/03/16 07:38:13;;;;;;;9.00;6.10;;;;;;;14.30;44.32;102069.81;4960854;28;20058;-89
2022/03/16 07:40:41;;;;;;;9.80;6.10;;;;;;;14.41;44.08;102078.22;4972538;28;20065;-89
2022/03/16 07:43:08;;;;;;;8.13;5.50;;;;;;;14.50;44.23;102078.59;4975075;28;20057;-90
2022/03/16 07:45:35;;;;;;;9.40;6.20;;;;;;;14.58;43.56;102074.41;4985588;28;20047;-90
2022/03/16 07:48:08;;;;;;;10.32;7.20;;;;;;;14.68;42.37;102059.16;4991827;28;20050;-89
2022/03/16 07:50:35;;;;;;;8.88;6.07;;;;;;;14.68;42.89;102070.09;4990436;28;20046;-89
2022/03/16 07:53:02;;;;;;;9.25;6.32;;;;;;;14.74;42.37;102072.44;4977947;28;20051;-90
2022/03/16 07:55:30;;;;;;;8.00;6.00;;;;;;;14.76;42.98;102067.75;4961701;28;20146;-88
2022/03/16 07:57:57;;;;;;;7.78;5.78;;;;;;;14.79;42.54;102067.56;4994389;28;20057;-89
2022/03/16 08:00:24;;;;;;;7.80;5.63;;;;;;;14.84;43.03;102061.78;5042120;28;20066;-89
2022/03/16 08:02:56;;;;;;;8.43;6.30;;;;;;;14.91;42.52;102073.19;5039385;28;20477;-89
2022/03/16 08:05:24;;;;;;;8.00;5.55;;;;;;;14.97;42.85;102070.94;5027148;28;20051;-88
2022/03/16 08:07:51;;;;;;;9.05;5.75;;;;;;;15.04;42.78;102064.09;5029693;28;20057;-88
2022/03/16 08:10:18;;;;;;;8.18;5.22;;;;;;;15.10;42.40;102065.53;5001848;28;20064;-87
2022/03/16 08:12:45;;;;;;;8.40;5.72;;;;;;;15.16;42.24;102049.56;5041613;28;20574;-88
2022/03/16 08:15:13;;;;;;;8.48;5.75;;;;;;;15.23;41.98;102058.28;5040425;28;20052;-86
2022/03/16 08:17:40;;;;;;;7.45;5.38;;;;;;;15.28;41.67;102053.38;5029062;28;20049;-85
2022/03/16 08:20:08;;;;;;;7.97;5.55;;;;;;;15.30;41.69;102048.66;5055015;28;20060;-86
2022/03/16 08:22:36;;;;;;;8.88;6.05;;;;;;;15.32;41.31;102045.84;5042103;28;20045;-87
2022/03/16 08:25:08;;;;;;;8.07;5.47;;;;;;;15.35;41.03;102054.69;5046829;28;20042;-87
2022/03/16 08:27:37;;;;;;;8.15;6.00;;;;;;;15.28;40.87;102041.53;5053257;28;20104;-85
2022/03/16 08:30:05;;;;;;;7.18;5.63;;;;;;;15.29;40.33;102043.28;5047826;28;20088;-85
2022/03/16 08:32:33;;;;;;;8.40;5.88;;;;;;;15.22;40.61;102048.31;5038882;28;20045;-83
2022/03/16 08:35:00;;;;;;;8.45;5.65;;;;;;;15.18;40.34;102041.28;5059385;28;20049;-85
2022/03/16 08:37:27;;;;;;;8.07;5.35;;;;;;;15.15;40.58;102044.25;5038798;28;20064;-85
2022/03/16 08:39:54;;;;;;;7.72;5.70;;;;;;;15.10;40.40;102036.31;5032491;28;20484;-86
2022/03/16 08:42:23;;;;;;;9.70;5.95;;;;;;;15.05;40.34;102030.28;5033899;28;20122;-88
2022/03/16 08:44:51;;;;;;;8.82;5.85;;;;;;;15.05;40.31;102034.88;5035576;28;20053;-87
2022/03/16 08:47:20;;;;;;;8.18;5.75;;;;;;;15.02;40.52;102038.69;5036719;28;20083;-88
2022/03/16 08:49:50;;;;;;;8.20;5.30;;;;;;;15.02;40.44;102041.44;5028752;28;20473;-88
2022/03/16 08:52:19;;;;;;;9.73;6.00;;;;;;;14.99;40.75;102047.09;5038830;28;20448;-88
2022/03/16 08:54:47;;;;;;;8.70;5.15;;;;;;;15.00;40.96;102046.13;5034229;28;20049;-88
2022/03/16 08:57:15;;;;;;;8.15;5.72;;;;;;;15.00;40.56;102034.28;5036626;28;20052;-88
2022/03/16 08:59:42;;;;;;;7.40;4.82;;;;;;;14.98;40.54;102028.94;5048894;28;20378;-87
2022/03/16 09:02:11;;;;;;;9.60;7.25;;;;;;;15.00;40.56;102032.44;5020510;28;20065;-88
2022/03/16 09:04:40;;;;;;;9.30;5.78;;;;;;;15.01;40.69;102019.63;5053127;28;20045;-87
2022/03/16 09:07:07;;;;;;;9.00;5.85;;;;;;;15.02;40.56;102033.22;5036366;28;20496;-87
2022/03/16 09:09:41;;;;;;;8.25;5.65;;;;;;;15.04;40.06;102022.19;5037319;28;20049;-87
2022/03/16 09:12:11;;;;;;;9.23;6.75;;;;;;;15.04;40.19;102020.34;5062342;28;20057;-85
2022/03/16 09:14:39;;;;;;;8.02;5.32;;;;;;;15.04;40.39;102024.91;5041807;28;20087;-86
2022/03/16 09:17:10;;;;;;;8.10;5.60;;;;;;;15.08;40.57;102023.72;5020828;28;20057;-85
2022/03/16 09:19:38;;;;;;;8.77;5.63;;;;;;;15.09;40.37;102033.69;5017985;28;20132;-87
2022/03/16 09:22:05;;;;;;;9.90;5.50;;;;;;;15.12;40.74;102033.50;5036281;28;20049;-87
2022/03/16 09:24:32;;;;;;;8.35;5.53;;;;;;;15.15;40.81;102031.41;4991884;28;20053;-86
2022/03/16 09:27:00;;;;;;;9.40;5.45;;;;;;;15.20;41.21;102031.13;5027700;28;20051;-88
2022/03/16 09:29:29;;;;;;;7.80;5.18;;;;;;;15.26;40.94;102027.97;5025774;28;20516;-88
2022/03/16 09:32:06;;;;;;;8.02;5.50;;;;;;;15.33;40.88;102034.75;5030182;28;20052;-89
2022/03/16 09:34:33;;;;;;;7.43;5.32;;;;;;;15.40;40.85;102036.09;5036241;28;20048;-88
2022/03/16 09:37:00;;;;;;;7.95;5.35;;;;;;;15.46;40.98;102049.38;5049143;28;20057;-87
2022/03/16 09:39:27;;;;;;;7.68;5.03;;;;;;;15.53;40.61;102039.78;5051355;28;20131;-88
2022/03/16 09:41:56;;;;;;;7.82;5.55;;;;;;;15.60;40.74;102042.97;5038108;28;20053;-87
2022/03/16 09:44:24;;;;;;;7.30;5.30;;;;;;;15.65;40.27;102049.00;5050558;28;20071;-88
2022/03/16 09:46:54;;;;;;;8.07;5.38;;;;;;;15.70;40.22;102054.19;5035855;28;20049;-88
2022/03/16 09:49:22;;;;;;;7.47;5.53;;;;;;;15.73;39.89;102049.34;5019896;28;20455;-89
2022/03/16 09:51:50;;;;;;;7.43;4.95;;;;;;;15.77;40.15;102044.56;5036258;28;20068;-88
2022/03/16 09:54:17;;;;;;;7.50;5.15;;;;;;;15.81;40.49;102032.41;5033478;28;20041;-89
2022/03/16 09:56:46;;;;;;;7.80;5.32;;;;;;;15.86;40.14;102043.91;5039219;28;20049;-86
2022/03/16 09:59:15;;;;;;;7.80;5.20;;;;;;;15.92;39.59;102035.25;5032595;28;20764;-88
2022/03/16 10:01:43;;;;;;;6.82;5.13;;;;;;;15.95;39.82;102035.94;5033083;28;20064;-88
2022/03/16 10:04:10;;;;;;;6.55;4.80;;;;;;;15.98;39.58;102029.34;5044539;28;20053;-88
2022/03/16 10:06:42;;;;;;;7.18;4.97;;;;;;;16.07;39.06;102049.72;5039308;28;20044;-88
2022/03/16 10:15:23;;;;;;;7.30;4.47;;;;;;;16.13;39.51;102032.88;4991644;28;20136;-88
2022/03/16 10:18:04;;;;;;;8.82;5.90;;;;;;;16.21;38.49;102008.53;5031365;28;20060;-88
2022/03/16 10:20:36;;;;;;;6.80;5.10;;;;;;;16.23;38.90;102007.41;5026845;28;20049;-87
2022/03/16 10:23:48;;;;;;;;;;;;;;;;;;;;;
2022/03/16 10:26:29;;;;;;;;;;;;;;;16.04;39.48;102014.34;5042485;28;20052;-88
2022/03/16 10:29:04;;;;;;;6.93;4.82;;;;;;;16.26;38.17;102029.13;5032857;28;19924;-87
2022/03/16 10:31:33;;;;;;;6.40;4.75;;;;;;;16.27;38.14;102003.47;5044065;28;20041;-86
2022/03/16 10:34:03;;;;;;;5.95;4.30;;;;;;;16.28;38.35;102010.72;5025989;28;20041;-87
2022/03/16 10:36:41;;;;;;;;;;;;;;;16.05;38.74;102006.03;5051714;28;20079;-87
2022/03/16 10:39:08;;;;;;;6.32;4.03;;;;;;;16.28;38.86;102012.59;5043651;28;19947;-86
2022/03/16 10:47:14;;;;;;;6.95;4.47;;;;;;;16.48;37.60;102009.25;5051294;28;20057;-88
2022/03/16 10:49:45;;;;;;;7.23;4.50;;;;;;;16.47;37.78;101998.44;5049916;28;20080;-87
2022/03/16 10:52:17;;;;;;;6.80;4.35;;;;;;;16.52;38.04;102009.91;5049135;28;20045;-88
2022/03/16 10:54:47;;;;;;;7.13;4.77;;;;;;;16.56;37.73;102006.81;5026104;28;20577;-88
2022/03/16 10:57:15;;;;;;;7.80;4.75;;;;;;;16.59;37.59;102012.09;5033810;28;20056;-88
2022/03/16 10:59:43;;;;;;;6.35;4.35;;;;;;;16.63;37.29;101986.25;5015084;28;20049;-88
2022/03/16 11:02:17;;;;;;;6.90;4.60;;;;;;;16.67;37.62;101993.22;5046106;28;20076;-88
2022/03/16 11:04:50;;;;;;;5.82;4.40;;;;;;;16.73;37.36;101997.38;5039140;28;20050;-88
2022/03/16 11:07:19;;;;;;;6.05;4.30;;;;;;;16.75;37.71;101978.94;5035514;28;20065;-88
2022/03/16 11:09:48;;;;;;;5.72;4.05;;;;;;;16.80;37.55;101987.69;5020942;28;20056;-89
2022/03/16 11:15:09;;;;;;;6.25;4.10;;;;;;;16.92;37.80;101973.06;5046770;28;20132;-88
2022/03/16 11:17:40;;;;;;;5.70;4.30;;;;;;;17.00;37.94;101967.00;5032425;28;20057;-89
2022/03/16 11:20:11;;;;;;;6.32;4.35;;;;;;;17.07;37.52;101973.78;5012668;28;20052;-82
2022/03/16 11:25:41;;;;;;;5.85;4.20;;;;;;;17.24;37.21;101972.47;5041869;28;20412;-73
2022/03/16 11:28:16;;;;;;;6.75;4.22;;;;;;;17.30;37.48;101970.13;5040312;28;20459;-74
2022/03/16 11:30:45;;;;;;;5.25;3.90;;;;;;;17.36;37.24;101957.81;5047739;28;20049;-73
2022/03/16 11:33:15;;;;;;;6.28;4.07;;;;;;;17.45;37.57;101959.84;5046664;28;20049;-73
2022/03/16 11:35:47;;;;;;;5.63;3.58;;;;;;;17.54;37.44;101959.13;5049636;28;20505;-74
2022/03/16 11:38:15;;;;;;;5.45;3.38;;;;;;;17.62;37.83;101956.69;5047531;28;20102;-74
2022/03/16 11:40:48;;;;;;;4.90;3.35;;;;;;;17.73;37.37;101951.19;5043973;28;20057;-73
2022/03/16 11:43:21;;;;;;;5.55;3.85;;;;;;;17.79;36.44;101945.19;5048246;28;20041;-74
2022/03/16 11:45:54;;;;;;;5.40;3.80;;;;;;;17.88;36.41;101949.09;5046541;28;20045;-75
2022/03/16 11:51:09;;;;;;;5.32;3.58;;;;;;;17.98;35.51;101951.97;5044306;28;20088;-76